Latest Weather Observations for Scotts Peak

IDT60801

Issued at 11:02 am EDT Thursday 5 March 2015 (issued every 30 minutes, with the page automatically refreshed every 10 minutes)

About weather observations | Map of weather stations | Latest weather observations for TAS | Other Formats
Station Details ID: 097083 Name: SCOTTS PEAK DAM Lat: -43.04 Lon: 146.27 Height: 408.0 m
Data from the previous 72 hours. | See also: Recent months at Scotts Peak
Date/Time
EDT
Temp
°C
App
Temp
°C
Dew
Point
Rel
Hum
%
Delta-T
°C
Wind Press
QNH
hPa
Press
MSL
hPa
Rain
since 9 am
mm
Dir
 
Spd
km/h
Gust
km/h
Spd
kts
Gust
kts
05/11:00am 7.8 0.2 3.1 72 2.0 WNW 32 50 17 27 - - 0.0
05/10:32am 7.1 0.0 1.6 68 2.3 W 28 54 15 29 - - 0.0
05/10:30am 7.5 1.2 1.8 67 2.4 W 24 43 13 23 - - 0.0
05/10:00am 6.4 -0.9 2.3 75 1.7 W 30 57 16 31 - - 0.0
05/09:56am 5.9 -0.3 2.4 78 1.5 W 24 57 13 31 - - 0.0
05/09:30am 5.9 0.6 1.8 75 1.7 SW 19 32 10 17 - - 0.0
05/09:00am 4.9 -2.5 1.6 79 1.3 WSW 30 57 16 31 - - 29.4
05/08:42am 4.5 -3.3 1.5 81 1.2 W 32 57 17 31 - - 29.4
05/08:40am 4.5 -3.0 1.4 80 1.2 W 30 56 16 30 - - 29.4
05/08:38am 4.4 -2.3 1.4 81 1.2 W 26 56 14 30 - - 29.4
05/08:30am 5.9 -0.3 2.0 76 1.6 W 24 43 13 23 - - 28.8
05/08:00am 5.0 -2.1 1.1 76 1.6 WSW 28 50 15 27 - - 28.8
05/07:38am 4.8 -2.2 1.8 81 1.2 W 28 46 15 25 - - 28.6
05/07:30am 5.1 -0.8 1.8 79 1.4 WSW 22 37 12 20 - - 28.6
05/07:04am 5.1 -1.8 2.3 82 1.2 W 28 46 15 25 - - 28.6
05/07:00am 5.0 -1.9 2.5 84 1.0 WSW 28 46 15 25 - - 28.6
05/06:30am 4.8 -1.6 3.0 88 0.8 WSW 26 35 14 19 - - 28.4
05/06:00am 4.1 -4.1 2.6 90 0.6 WSW 35 67 19 36 - - 27.2
05/05:55am 4.1 -2.8 2.3 88 0.7 WSW 28 67 15 36 - - 26.4
05/05:30am 4.5 -1.9 3.2 91 0.5 WSW 26 41 14 22 - - 24.2
05/05:11am 4.7 -2.1 3.0 89 0.7 W 28 65 15 35 - - 23.0
05/05:10am 4.7 -2.1 3.0 89 0.7 W 28 65 15 35 - - 23.0
05/05:00am 4.7 -0.9 3.7 93 0.4 W 22 39 12 21 - - 22.0
05/04:48am 4.7 -2.4 3.5 92 0.5 WSW 30 48 16 26 - - 22.0
05/04:43am 4.7 -3.0 3.4 91 0.6 WSW 33 65 18 35 - - 22.0
05/04:38am 4.8 -4.4 3.5 91 0.6 WSW 41 74 22 40 - - 22.0
05/04:30am 4.8 -5.0 3.3 90 0.6 W 44 74 24 40 - - 21.8
05/04:29am 4.8 -4.8 3.3 90 0.6 W 43 74 23 40 - - 21.8
05/04:04am 5.6 0.6 4.4 92 0.5 WSW 20 52 11 28 - - 21.4
05/04:00am 5.5 1.9 4.8 95 0.3 WSW 13 28 7 15 - - 21.0
05/03:41am 5.6 0.7 4.9 95 0.3 W 20 50 11 27 - - 20.6
05/03:30am 5.5 1.4 4.6 94 0.4 W 15 33 8 18 - - 19.8
05/03:00am 5.4 0.6 4.5 94 0.4 SW 19 35 10 19 - - 18.6
05/02:51am 5.3 -1.7 4.3 93 0.4 W 30 46 16 25 - - 18.4
05/02:30am 5.3 -3.5 3.8 90 0.6 W 39 57 21 31 - - 16.8
05/02:19am 5.9 -1.2 3.7 86 1.0 W 30 56 16 30 - - 15.8
05/02:00am 5.8 0.4 4.4 91 0.6 WSW 22 41 12 22 - - 15.8
05/01:39am 5.9 -1.4 4.7 92 0.5 W 32 50 17 27 - - 15.6
05/01:30am 6.4 0.4 5.2 92 0.5 WNW 26 41 14 22 - - 14.6
05/01:00am 6.5 -0.6 5.6 94 0.4 WNW 32 37 17 20 - - 13.0
05/12:30am 6.3 -0.5 5.3 93 0.5 WNW 30 43 16 23 - - 12.8
05/12:00am 6.8 -1.2 5.7 93 0.5 WNW 37 59 20 32 - - 10.8
 
Date/Time
EDT
Temp
°C
App
Temp
°C
Dew
Point
Rel
Hum
%
Delta-T
°C
Wind Press
QNH
hPa
Press
MSL
hPa
Rain
since 9 am
mm
Dir
 
Spd
km/h
Gust
km/h
Spd
kts
Gust
kts
04/11:37pm 7.2 -3.9 6.5 95 0.3 WNW 54 72 29 39 - - 9.0
04/11:30pm 7.3 -3.7 6.6 95 0.3 NW 54 72 29 39 - - 8.6
04/11:28pm 7.4 -2.9 6.7 95 0.3 WNW 50 72 27 39 - - 8.6
04/11:20pm 7.9 0.2 7.3 96 0.3 WNW 37 56 20 30 - - 8.0
04/11:00pm 7.8 0.4 6.9 94 0.4 WNW 35 50 19 27 - - 7.0
04/10:50pm 8.1 -0.7 7.3 95 0.4 WNW 43 56 23 30 - - 6.6
04/10:33pm 7.8 -3.6 6.7 93 0.5 WNW 56 74 30 40 - - 6.0
04/10:30pm 7.6 -4.0 6.5 93 0.5 WNW 57 74 31 40 - - 5.8
04/10:01pm 8.7 -3.5 7.3 91 0.7 NW 61 80 33 43 - - 4.2
04/10:00pm 8.6 -4.0 7.4 92 0.6 NW 63 80 34 43 - - 4.2
04/09:30pm 9.0 -3.1 7.6 91 0.7 WNW 61 87 33 47 - - 3.4
04/09:00pm 10.1 -4.1 7.7 85 1.2 NW 72 102 39 55 - - 2.4
04/08:52pm 10.2 -3.7 7.4 83 1.4 NW 70 102 38 55 - - 2.4
04/08:34pm 9.7 -2.7 8.3 91 0.7 NW 63 82 34 44 - - 2.4
04/08:30pm 9.7 -3.5 8.1 90 0.8 NW 67 82 36 44 - - 2.4
04/08:19pm 9.3 -5.6 8.1 92 0.6 NW 76 96 41 52 - - 2.4
04/08:00pm 9.7 -5.9 8.1 90 0.8 NW 80 111 43 60 - - 2.4
04/07:58pm 9.9 -5.0 8.0 88 0.9 NW 76 111 41 60 - - 2.4
04/07:52pm 9.9 -3.6 8.3 90 0.8 NW 69 95 37 51 - - 2.4
04/07:39pm 9.8 -2.0 8.9 94 0.5 WNW 61 82 33 44 - - 2.2
04/07:36pm 9.9 -2.3 9.1 95 0.4 WNW 63 82 34 44 - - 2.2
04/07:30pm 9.7 -4.2 8.8 94 0.5 NW 72 95 39 51 - - 2.2
04/07:16pm 9.7 -5.5 8.5 92 0.6 WNW 78 98 42 53 - - 2.0
04/07:13pm 9.9 -4.9 8.5 91 0.7 WNW 76 98 41 53 - - 2.0
04/07:01pm 10.3 -1.4 9.2 93 0.6 NW 61 87 33 47 - - 2.0
04/07:00pm 10.3 -1.0 9.4 94 0.5 NW 59 76 32 41 - - 1.8
04/06:30pm 10.9 -1.7 9.0 88 1.0 NW 65 83 35 45 - - 1.4
04/06:00pm 11.7 -0.3 8.0 78 1.8 WNW 61 83 33 45 - - 1.4
04/05:35pm 11.2 -1.6 8.2 82 1.5 NW 65 85 35 46 - - 1.4
04/05:30pm 11.6 -1.1 8.6 82 1.5 NW 65 80 35 43 - - 1.4
04/05:00pm 13.7 0.3 8.5 71 2.7 NW 69 89 37 48 - - 1.4
04/04:35pm 12.0 -2.7 8.8 81 1.6 NW 76 95 41 51 - - 1.4
04/04:30pm 11.7 -3.3 9.1 84 1.3 WNW 78 95 42 51 - - 1.4
04/04:22pm 11.2 -1.2 9.6 90 0.8 WNW 65 89 35 48 - - 1.4
04/04:19pm 11.1 -0.4 8.8 86 1.2 NW 59 85 32 46 - - 1.4
04/04:10pm 12.3 2.6 9.0 80 1.7 WNW 50 69 27 37 - - 1.4
04/04:00pm 11.6 3.0 8.8 83 1.4 WNW 44 56 24 30 - - 1.4
04/03:30pm 11.8 1.1 9.7 87 1.1 NW 56 74 30 40 - - 1.4
04/03:00pm 14.7 4.4 11.1 79 2.0 NW 56 82 30 44 - - 1.4
04/02:30pm 10.9 -0.9 9.0 88 1.0 NW 61 96 33 52 - - 1.4
04/02:00pm 11.4 -0.9 10.0 91 0.7 NW 65 87 35 47 - - 1.4
04/01:51pm 11.1 0.4 9.7 91 0.7 WNW 56 87 30 47 - - 1.4
04/01:50pm 11.3 0.7 10.0 92 0.7 WNW 56 82 30 44 - - 1.4
04/01:30pm 11.1 2.4 9.9 92 0.6 NW 46 65 25 35 - - 1.2
04/01:00pm 10.9 0.0 9.5 91 0.7 WNW 57 74 31 40 - - 1.2
04/12:30pm 11.2 2.0 9.6 90 0.8 WNW 48 69 26 37 - - 1.2
04/12:02pm 12.4 1.7 9.6 83 1.5 NW 56 82 30 44 - - 1.0
04/12:00pm 12.6 2.4 10.0 84 1.4 NW 54 69 29 37 - - 1.0
04/11:30am 12.1 1.8 11.0 93 0.6 WNW 56 78 30 42 - - 1.0
04/11:00am 10.7 -2.2 9.1 90 0.8 WNW 67 95 36 51 - - 1.0
04/10:30am 10.8 -0.8 9.6 92 0.6 WNW 61 89 33 48 - - 0.8
04/10:22am 11.3 1.2 10.4 94 0.5 WNW 54 76 29 41 - - 0.8
04/10:19am 11.5 0.2 10.7 95 0.4 WNW 61 91 33 49 - - 0.8
04/10:13am 11.2 -0.6 10.4 95 0.4 NW 63 91 34 49 - - 0.6
04/10:12am 11.3 -0.9 10.5 95 0.4 WNW 65 91 35 49 - - 0.6
04/10:02am 11.4 0.7 10.3 93 0.6 WNW 57 76 31 41 - - 0.2
04/10:00am 11.4 0.7 10.3 93 0.6 WNW 57 72 31 39 - - 0.2
04/09:30am 11.4 -0.5 10.0 91 0.7 WNW 63 89 34 48 - - 0.0
04/09:18am 12.1 -0.7 9.5 84 1.3 WNW 67 89 36 48 - - 0.0
04/09:15am 12.3 -0.2 9.3 82 1.5 WNW 65 83 35 45 - - 0.0
04/09:00am 12.1 1.6 8.8 80 1.7 NW 54 85 29 46 - - 0.4
04/08:58am 12.1 2.0 8.8 80 1.7 NW 52 85 28 46 - - 0.4
04/08:30am 11.3 2.8 8.5 83 1.4 NW 43 65 23 35 - - 0.4
04/08:00am 10.8 0.7 8.9 88 1.0 NW 52 78 28 42 - - 0.4
04/07:30am 11.0 1.1 8.4 84 1.3 NW 50 76 27 41 - - 0.4
04/07:05am 10.8 2.0 7.9 82 1.4 NW 44 67 24 36 - - 0.4
04/07:00am 10.8 1.6 7.9 82 1.4 NW 46 57 25 31 - - 0.4
04/06:30am 10.9 0.6 8.0 82 1.4 NW 52 72 28 39 - - 0.4
04/06:00am 10.6 -0.4 8.4 86 1.1 WNW 56 82 30 44 - - 0.4
04/05:30am 10.0 -2.7 8.6 91 0.7 WNW 65 89 35 48 - - 0.4
04/05:17am 10.2 -1.3 8.5 89 0.8 NW 59 100 32 54 - - 0.2
04/05:03am 9.9 -1.3 8.2 89 0.8 NW 57 74 31 40 - - 0.2
04/05:00am 9.9 -1.3 8.2 89 0.8 NW 57 74 31 40 - - 0.2
04/04:59am 10.0 -1.0 8.3 89 0.8 NW 56 74 30 40 - - 0.2
04/04:45am 9.7 1.1 8.3 91 0.7 WNW 43 63 23 34 - - 0.2
04/04:30am 10.4 1.6 8.0 85 1.2 WNW 44 56 24 30 - - 0.2
04/04:00am 11.1 2.9 6.6 74 2.2 NW 39 57 21 31 - - 0.2
04/03:30am 11.0 2.9 6.9 76 2.0 NW 39 57 21 31 - - 0.2
04/03:08am 10.8 1.6 6.4 74 2.1 NW 44 63 24 34 - - 0.2
04/03:00am 10.6 1.6 6.4 75 2.0 NW 43 57 23 31 - - 0.2
04/02:30am 10.6 0.7 6.4 75 2.0 NW 48 69 26 37 - - 0.2
04/02:25am 10.4 0.4 6.2 75 2.0 NW 48 69 26 37 - - 0.2
04/02:00am 10.9 2.9 5.9 71 2.4 NW 37 50 20 27 - - 0.2
04/01:33am 10.6 2.7 6.0 73 2.2 NW 37 56 20 30 - - 0.2
04/01:30am 10.6 1.9 6.0 73 2.2 NW 41 56 22 30 - - 0.2
04/01:00am 10.6 1.5 6.0 73 2.2 NW 43 63 23 34 - - 0.2
04/12:37am 10.4 2.9 6.2 75 2.0 NW 35 67 19 36 - - 0.2
04/12:30am 10.4 3.3 6.4 76 1.9 NW 33 46 18 25 - - 0.2
04/12:03am 10.0 2.1 6.2 77 1.8 NW 37 56 20 30 - - 0.2
04/12:00am 9.9 1.8 7.0 82 1.4 NNW 39 56 21 30 - - 0.2
 
Date/Time
EDT
Temp
°C
App
Temp
°C
Dew
Point
Rel
Hum
%
Delta-T
°C
Wind Press
QNH
hPa
Press
MSL
hPa
Rain
since 9 am
mm
Dir
 
Spd
km/h
Gust
km/h
Spd
kts
Gust
kts
03/11:30pm 9.7 1.2 7.0 83 1.3 NW 41 59 22 32 - - 0.2
03/11:25pm 9.5 2.6 7.4 87 1.0 NW 33 52 18 28 - - 0.2
03/11:00pm 9.9 0.7 6.4 79 1.7 NW 44 54 24 29 - - 0.2
03/10:30pm 10.4 2.5 6.2 75 2.0 NNW 37 46 20 25 - - 0.2
03/10:00pm 10.2 1.5 5.8 74 2.1 NW 41 54 22 29 - - 0.2
03/09:30pm 10.5 1.7 5.7 72 2.3 NNW 41 50 22 27 - - 0.2
03/09:00pm 10.5 2.6 4.6 67 2.7 NW 35 46 19 25 - - 0.2
03/08:30pm 10.6 3.1 4.5 66 2.8 NW 33 43 18 23 - - 0.2
03/08:00pm 11.2 1.5 5.9 70 2.5 NW 46 61 25 33 - - 0.2
03/07:30pm 11.5 2.5 6.2 70 2.5 NW 43 59 23 32 - - 0.2
03/07:25pm 11.5 3.2 6.0 69 2.6 NW 39 57 21 31 - - 0.2
03/07:00pm 11.9 3.4 5.3 64 3.1 NNW 39 52 21 28 - - 0.2
03/06:30pm 12.4 5.1 5.6 63 3.2 NNW 33 46 18 25 - - 0.2
03/06:00pm 13.9 6.4 6.3 60 3.7 NNW 35 46 19 25 - - 0.2
03/05:30pm 14.9 9.0 7.7 62 3.7 NW 28 39 15 21 - - 0.2
03/05:00pm 12.7 5.3 3.9 55 4.1 WNW 32 43 17 23 - - 0.2
03/04:30pm 13.0 5.7 4.4 56 4.0 WNW 32 39 17 21 - - 0.2
03/04:28pm 12.9 5.3 3.8 54 4.2 WNW 33 48 18 26 - - 0.2
03/04:00pm 13.4 5.0 3.8 52 4.4 WNW 37 46 20 25 - - 0.2
03/03:30pm 14.1 5.3 3.6 49 4.9 WNW 39 52 21 28 - - 0.2
03/03:21pm 14.5 6.9 3.9 49 5.0 NW 33 52 18 28 - - 0.2
03/03:00pm 14.2 6.0 4.8 53 4.5 NW 37 46 20 25 - - 0.2
03/02:45pm 14.2 6.7 3.4 48 5.0 WNW 32 50 17 27 - - 0.2
03/02:30pm 16.5 9.7 6.9 53 4.8 NW 32 44 17 24 - - 0.2
03/02:00pm 13.5 7.9 5.2 57 4.0 NW 24 33 13 18 - - 0.2
03/01:30pm 14.6 8.0 6.2 57 4.1 NW 30 35 16 19 - - 0.0
03/01:00pm 13.3 7.0 5.5 59 3.7 WNW 28 37 15 20 - - 0.0
03/12:30pm 16.3 10.8 7.5 56 4.5 NW 26 33 14 18 - - 0.0
03/12:00pm 12.3 5.2 5.7 64 3.2 NW 32 41 17 22 - - 0.0
03/11:30am 12.6 6.7 5.8 63 3.3 NW 26 35 14 19 - - 0.0
03/11:00am 11.0 5.3 4.9 66 2.8 WNW 24 37 13 20 - - 0.0
03/10:30am 10.9 5.0 5.9 71 2.4 WNW 26 35 14 19 - - 0.0
03/10:00am 11.2 5.9 5.1 66 2.9 NW 22 33 12 18 - - 0.0
03/09:30am 10.5 5.7 7.4 81 1.5 NW 22 30 12 16 - - 0.0
03/09:00am 9.1 3.8 6.7 85 1.1 NW 24 32 13 17 - - 2.4
03/08:30am 8.6 3.9 6.2 85 1.1 WNW 20 28 11 15 - - 2.4
03/08:00am 8.5 4.5 6.6 88 0.9 NW 17 20 9 11 - - 2.4
03/07:30am 8.3 3.7 5.8 84 1.2 WNW 19 24 10 13 - - 2.4
03/07:00am 8.4 3.8 6.4 87 0.9 W 20 28 11 15 - - 2.4
03/06:30am 8.7 4.3 6.5 86 1.0 W 19 28 10 15 - - 2.4
03/06:00am 8.6 3.7 6.7 88 0.9 W 22 26 12 14 - - 2.4
03/05:30am 9.0 4.2 7.3 89 0.8 W 22 32 12 17 - - 2.4
03/05:00am 9.0 3.2 7.8 92 0.6 W 28 35 15 19 - - 2.4
03/04:30am 9.1 5.0 8.5 96 0.3 W 20 28 11 15 - - 2.4
03/04:00am 9.1 3.1 8.5 96 0.3 WNW 30 33 16 18 - - 2.0
03/03:30am 9.1 2.6 8.0 93 0.5 W 32 39 17 21 - - 1.8
03/03:00am 9.6 3.7 9.1 97 0.3 WNW 30 35 16 19 - - 1.4
03/02:30am 9.6 3.7 9.1 97 0.3 WNW 30 35 16 19 - - 1.2
03/02:00am 9.5 2.5 8.6 94 0.4 WNW 35 54 19 29 - - 0.6
03/01:51am 9.7 2.7 8.5 92 0.6 W 35 54 19 29 - - 0.4
03/01:41am 10.0 2.7 8.6 91 0.7 WNW 37 54 20 29 - - 0.2
03/01:30am 10.8 2.2 8.2 84 1.3 WNW 43 59 23 32 - - 0.2
03/01:20am 11.7 3.7 7.6 76 2.0 NW 39 57 21 31 - - 0.2
03/01:00am 11.5 4.4 8.2 80 1.7 NNW 35 46 19 25 - - 0.2
03/12:30am 11.4 3.6 8.1 80 1.6 NNW 39 50 21 27 - - 0.2
03/12:00am 11.1 4.9 7.8 80 1.6 NNW 30 44 16 24 - - 0.2
 
Date/Time
EDT
Temp
°C
App
Temp
°C
Dew
Point
Rel
Hum
%
Delta-T
°C
Wind Press
QNH
hPa
Press
MSL
hPa
Rain
since 9 am
mm
Dir
 
Spd
km/h
Gust
km/h
Spd
kts
Gust
kts
02/11:48pm 11.1 4.6 8.0 81 1.5 NNW 32 50 17 27 - - 0.2
02/11:30pm 11.1 4.9 7.8 80 1.6 NNW 30 39 16 21 - - 0.2
02/11:00pm 11.3 4.5 7.6 78 1.8 NNW 33 44 18 24 - - 0.2
02/10:50pm 11.3 5.4 7.4 77 1.9 NNW 28 46 15 25 - - 0.2
02/10:30pm 11.3 5.5 6.4 72 2.4 NW 26 39 14 21 - - 0.2
02/10:00pm 11.1 3.8 7.0 76 2.0 NNW 35 46 19 25 - - 0.2
02/09:30pm 10.9 5.5 6.3 73 2.2 NNW 24 39 13 21 - - 0.2
02/09:00pm 11.2 6.2 6.5 73 2.3 NW 22 32 12 17 - - 0.2
02/08:30pm 11.3 3.2 5.2 66 2.9 WNW 37 48 20 26 - - 0.2
02/08:00pm 11.6 5.0 5.9 68 2.7 WNW 30 43 16 23 - - 0.2
02/07:30pm 11.9 6.2 6.8 71 2.5 WNW 26 32 14 17 - - 0.2
02/07:00pm 13.3 7.3 7.1 66 3.1 WNW 28 39 15 21 - - 0.2
02/06:39pm 14.5 8.7 7.8 64 3.4 WNW 28 46 15 25 - - 0.2
02/06:30pm 14.1 7.5 7.6 65 3.3 WNW 32 39 17 21 - - 0.2
02/06:00pm 15.0 9.0 8.7 66 3.3 NW 30 43 16 23 - - 0.2
02/05:30pm 15.1 11.0 8.6 65 3.4 NW 20 32 11 17 - - 0.2
02/05:00pm 15.8 8.9 7.3 57 4.3 NW 33 46 18 25 - - 0.2
02/04:30pm 16.1 9.6 8.1 59 4.1 NNW 32 41 17 22 - - 0.2
02/04:00pm 18.4 12.6 9.5 56 4.8 NNW 30 41 16 22 - - 0.2
02/03:30pm 17.7 11.7 8.8 56 4.7 NW 30 43 16 23 - - 0.2
02/03:00pm 17.8 12.2 8.9 56 4.7 NNW 28 37 15 20 - - 0.2
02/02:30pm 17.8 11.6 9.4 58 4.5 NNW 32 39 17 21 - - 0.2
02/02:00pm 18.4 13.7 10.7 61 4.2 NNW 26 32 14 17 - - 0.2
02/01:30pm 17.7 12.8 10.1 61 4.1 NNW 26 32 14 17 - - 0.0
02/01:00pm 16.4 11.6 10.3 67 3.3 N 26 32 14 17 - - 0.0
02/12:30pm 15.0 10.0 9.6 70 2.9 N 26 33 14 18 - - 0.0
02/12:00pm 14.4 10.4 9.2 71 2.7 N 20 28 11 15 - - 0.0
02/11:30am 12.7 10.4 7.4 70 2.6 NNW 9 20 5 11 - - 0.0

Other Formats:

Comma delimited format used in spreadsheet applications
http://www.bom.gov.au/fwo/IDT60801/IDT60801.95958.axf

JavaScript Object Notation format (JSON) in row-major order
http://www.bom.gov.au/fwo/IDT60801/IDT60801.95958.json